Time;durP1;ratioP1;P1;durP2;ratioP2;P2;SDS_P1;SDS_P2;PMS_P1;PMS_P2;Temp;Humidity;BMP_temperature;BMP_pressure;BME280_temperature;BME280_humidity;BME280_pressure;Samples;Min_cycle;Max_cycle;Signal;HPM_P1;HPM_P2
2021/07/15 00:08:38;;;;;;;5.20;2.30;;;;;;;21.76;100.00;100244.84;20851097;28;20235;-71
2021/07/15 00:18:42;;;;;;;2.73;2.30;;;;;;;21.67;100.00;100251.31;20846488;28;20224;-71
2021/07/15 00:28:42;;;;;;;3.97;2.33;;;;;;;21.49;100.00;100227.06;20839358;28;20224;-70
2021/07/15 00:38:43;;;;;;;3.55;2.42;;;;;;;21.46;100.00;100185.84;20849216;28;20704;-70
2021/07/15 00:48:43;;;;;;;4.87;2.23;;;;;;;21.45;100.00;100148.84;20921227;28;20223;-72
2021/07/15 00:58:44;;;;;;;2.50;2.10;;;;;;;21.46;100.00;100128.84;20838626;28;20223;-71
2021/07/15 01:08:45;;;;;;;2.17;1.87;;;;;;;21.66;100.00;100140.97;20832513;28;20220;-71
2021/07/15 01:29:17;;;;;;;3.20;1.97;;;;;;;21.79;100.00;100092.38;20607837;27;8561261;-71
2021/07/15 01:39:20;;;;;;;2.97;2.03;;;;;;;21.63;100.00;100089.72;20891570;28;20306;-70
2021/07/15 01:59:32;;;;;;;2.70;1.80;;;;;;;21.45;100.00;100117.13;20438390;27;8568230;-71
2021/07/15 02:09:35;;;;;;;1.97;1.87;;;;;;;21.39;100.00;100122.38;20727904;28;20705;-71
2021/07/15 02:19:36;;;;;;;4.87;2.53;;;;;;;21.41;100.00;100402.69;20727858;28;20263;-70
2021/07/15 02:29:36;;;;;;;2.83;2.27;;;;;;;22.47;96.19;100377.22;20725778;28;20221;-70
2021/07/15 02:49:46;;;;;;;8.03;3.67;;;;;;;22.39;100.00;100458.84;20740002;27;8583310;-70
2021/07/15 02:59:55;;;;;;;13.83;5.13;;;;;;;21.49;100.00;100220.81;20957536;28;20313;-72
2021/07/15 04:29:31;;;;;;;12.17;4.83;;;;;;;21.23;100.00;100345.00;20600954;27;8525566;-68
2021/07/15 04:39:33;;;;;;;9.73;4.90;;;;;;;21.10;100.00;100270.31;20892827;28;20253;-69
2021/07/15 04:49:34;;;;;;;7.60;4.57;;;;;;;21.22;100.00;100175.00;20835585;28;20230;-67
2021/07/15 04:59:39;;;;;;;7.40;4.70;;;;;;;21.56;100.00;100167.50;20807767;28;20217;-67
2021/07/15 05:09:39;;;;;;;6.63;4.10;;;;;;;23.31;100.00;100158.72;20807016;28;20223;-67
2021/07/15 05:19:39;;;;;;;8.07;5.03;;;;;;;23.89;100.00;100127.16;20838750;28;20319;-67
2021/07/15 05:29:40;;;;;;;9.47;4.70;;;;;;;25.12;100.00;100129.78;20970303;28;20227;-65
2021/07/15 05:39:44;;;;;;;5.80;3.70;;;;;;;25.95;100.00;100148.06;20920721;28;20592;-64
2021/07/15 05:49:44;;;;;;;6.43;4.10;;;;;;;27.03;100.00;100138.16;20897503;28;20458;-65
2021/07/15 05:59:45;;;;;;;5.40;3.43;;;;;;;27.92;95.94;100120.09;20913346;28;20284;-75
2021/07/15 06:09:45;;;;;;;6.07;3.53;;;;;;;28.28;94.56;100083.06;20913581;28;20219;-66
2021/07/15 06:19:46;;;;;;;7.63;3.77;;;;;;;27.57;86.05;100062.00;20910852;28;20231;-68
2021/07/15 06:29:46;;;;;;;7.20;3.53;;;;;;;27.81;84.81;100041.25;20911656;28;20293;-68
2021/07/15 06:39:46;;;;;;;6.63;3.50;;;;;;;28.16;75.60;100032.63;20910979;28;20247;-73
2021/07/15 06:49:47;;;;;;;5.88;3.40;;;;;;;29.04;82.21;100019.78;20909052;28;20695;-73
2021/07/15 06:59:54;;;;;;;5.82;2.92;;;;;;;29.62;74.23;100041.41;20909390;28;20299;-70
2021/07/15 07:09:55;;;;;;;5.72;3.50;;;;;;;29.95;70.24;100071.25;20908458;28;20223;-73
2021/07/15 07:19:55;;;;;;;3.85;2.47;;;;;;;31.35;66.76;100111.19;20906407;28;20584;-69
2021/07/15 07:29:56;;;;;;;5.40;2.38;;;;;;;32.78;64.78;100109.56;20906963;28;20221;-70
2021/07/15 07:39:56;;;;;;;5.57;2.55;;;;;;;32.71;59.09;100084.88;20906155;28;20246;-72
2021/07/15 07:49:57;;;;;;;8.50;3.88;;;;;;;31.83;53.81;100086.09;20887679;28;20684;-70
2021/07/15 08:00:10;;;;;;;7.53;3.88;;;;;;;31.91;56.91;100089.56;20904690;28;20610;-72
2021/07/15 08:10:12;;;;;;;5.60;3.50;;;;;;;32.80;57.52;100119.31;20904603;28;20226;-69
2021/07/15 08:20:12;;;;;;;8.07;2.85;;;;;;;33.69;58.17;100196.91;20902490;28;20255;-68
2021/07/15 08:30:14;;;;;;;5.75;2.40;;;;;;;35.01;56.34;100260.56;20903514;28;20223;-70
2021/07/15 08:40:15;;;;;;;3.80;2.10;;;;;;;34.34;57.97;100265.47;20869103;28;20267;-64
2021/07/15 08:50:17;;;;;;;5.88;4.10;;;;;;;34.93;55.99;100301.75;20868195;28;20273;-68
2021/07/15 09:00:17;;;;;;;11.43;3.70;;;;;;;33.54;56.90;100301.81;20902215;28;20386;-67
2021/07/15 09:10:18;;;;;;;8.15;3.22;;;;;;;32.41;62.94;100275.72;20908837;28;20215;-67
2021/07/15 09:20:22;;;;;;;7.60;3.70;;;;;;;32.55;59.23;100279.06;20915913;28;20228;-67
2021/07/15 09:30:23;;;;;;;8.02;3.38;;;;;;;33.41;59.19;100275.28;20898736;28;20239;-67
2021/07/15 09:40:45;;;;;;;4.55;3.03;;;;;;;33.53;55.66;100283.53;20915696;28;20242;-66
2021/07/15 09:50:51;;;;;;;3.88;3.42;;;;;;;33.70;55.67;100328.66;20914560;28;20611;-68
2021/07/15 10:01:01;;;;;;;5.22;3.13;;;;;;;33.15;51.01;100331.19;20879866;28;20704;-68
2021/07/15 10:11:23;;;;;;;4.68;3.40;;;;;;;33.54;50.19;100373.78;20895545;28;20210;-71
2021/07/15 10:21:26;;;;;;;5.47;2.90;;;;;;;32.86;51.43;100383.69;20911097;28;20219;-72
2021/07/15 10:31:28;;;;;;;4.35;3.00;;;;;;;32.89;55.25;100391.50;20893956;28;20211;-69
2021/07/15 10:41:28;;;;;;;4.53;2.60;;;;;;;33.89;54.15;100370.84;20892944;28;20231;-68
2021/07/15 10:51:29;;;;;;;5.72;3.58;;;;;;;32.52;52.12;100338.41;20892353;28;20212;-68
2021/07/15 11:01:36;;;;;;;7.88;3.63;;;;;;;30.98;54.14;100339.28;20891312;28;20310;-68
2021/07/15 11:11:40;;;;;;;6.10;3.42;;;;;;;30.05;59.28;100308.28;20908136;28;20220;-67
2021/07/15 11:21:40;;;;;;;4.47;3.33;;;;;;;29.59;63.07;100297.63;20888659;28;20215;-67
2021/07/15 11:31:41;;;;;;;5.25;3.40;;;;;;;31.29;60.64;100293.28;20906617;28;20242;-68
2021/07/15 11:41:45;;;;;;;4.68;2.67;;;;;;;31.42;58.66;100288.41;20906040;28;20276;-68
2021/07/15 11:52:02;;;;;;;3.80;2.90;;;;;;;31.47;58.22;100273.94;20887562;28;21249;-68
2021/07/15 12:02:04;;;;;;;7.10;3.20;;;;;;;30.98;60.11;100264.88;20904734;28;20303;-68
2021/07/15 12:12:05;;;;;;;4.00;3.30;;;;;;;29.97;63.74;100242.50;20904320;28;20223;-69
2021/07/15 12:22:06;;;;;;;7.97;3.72;;;;;;;29.93;64.07;100260.53;20884675;28;20227;-68
2021/07/15 12:32:06;;;;;;;5.80;3.58;;;;;;;30.50;61.38;100244.69;20903567;28;20246;-67
2021/07/15 12:42:11;;;;;;;5.15;3.47;;;;;;;30.19;60.80;100246.50;20904420;28;20588;-69
2021/07/15 12:52:11;;;;;;;4.82;3.75;;;;;;;29.61;63.99;100175.31;20901530;28;20246;-67
2021/07/15 13:02:12;;;;;;;7.22;4.30;;;;;;;29.97;63.62;100190.22;20918742;28;20215;-67
2021/07/15 13:23:05;;;;;;;8.55;3.83;;;;;;;30.12;54.56;100154.91;20915575;28;20224;-70
2021/07/15 13:33:25;;;;;;;9.63;3.83;;;;;;;30.20;53.15;100159.25;20580935;28;20226;-70
2021/07/15 13:43:26;;;;;;;8.95;3.78;;;;;;;30.12;57.83;100154.91;20564067;28;20317;-70
2021/07/15 13:53:27;;;;;;;5.20;4.03;;;;;;;29.66;61.72;100145.25;20579083;28;20222;-69
2021/07/15 14:03:28;;;;;;;6.30;3.75;;;;;;;29.71;61.45;100137.13;20643396;28;20298;-69
2021/07/15 14:13:30;;;;;;;4.07;3.10;;;;;;;29.67;60.71;100152.44;20895366;28;20247;-69
2021/07/15 14:23:32;;;;;;;6.90;3.70;;;;;;;29.49;60.18;100182.63;20887699;28;20223;-70
2021/07/15 14:33:32;;;;;;;4.43;3.20;;;;;;;29.93;58.71;100219.25;20881732;28;20227;-70
2021/07/15 14:43:34;;;;;;;3.97;3.58;;;;;;;30.18;60.20;100264.13;20876200;28;20724;-68
2021/07/15 14:53:35;;;;;;;6.78;3.90;;;;;;;30.85;59.06;100287.09;20856639;28;20706;-68
2021/07/15 15:03:35;;;;;;;4.75;3.97;;;;;;;31.38;56.54;100270.69;20873470;28;20235;-69
2021/07/15 15:13:35;;;;;;;5.40;3.90;;;;;;;31.35;58.10;100271.16;20899527;28;20227;-69
2021/07/15 15:23:36;;;;;;;5.25;3.65;;;;;;;31.02;57.88;100271.59;20905088;28;20613;-68
2021/07/15 15:33:37;;;;;;;5.85;3.65;;;;;;;30.51;59.73;100262.91;20906808;28;20242;-68
2021/07/15 15:43:40;;;;;;;3.88;3.58;;;;;;;30.79;61.45;100274.25;20906594;28;20227;-69
2021/07/15 15:53:41;;;;;;;5.05;3.60;;;;;;;30.63;61.55;100255.59;20904274;28;20296;-69
2021/07/15 16:03:41;;;;;;;4.97;3.80;;;;;;;30.07;62.23;100242.81;20904724;28;20231;-68
2021/07/15 16:13:42;;;;;;;4.60;3.75;;;;;;;29.36;65.67;100248.69;20904619;28;20298;-68
2021/07/15 16:23:43;;;;;;;5.82;4.60;;;;;;;28.94;68.84;100222.75;20901693;28;20234;-67
2021/07/15 16:33:44;;;;;;;5.18;3.92;;;;;;;29.36;67.62;100204.69;20881208;28;20234;-69
2021/07/15 16:43:45;;;;;;;5.20;4.03;;;;;;;30.06;67.32;100194.38;20899809;28;20911;-69
2021/07/15 16:53:45;;;;;;;6.03;4.15;;;;;;;29.97;64.54;100170.97;20901640;28;20247;-68
2021/07/15 17:03:46;;;;;;;5.68;4.75;;;;;;;30.25;64.09;100170.44;20902363;28;20228;-72
2021/07/15 17:13:53;;;;;;;5.22;4.18;;;;;;;30.85;62.10;100143.78;20902102;28;20265;-70
2021/07/15 17:23:53;;;;;;;6.15;4.10;;;;;;;30.60;62.76;100162.38;20900142;28;20326;-73
2021/07/15 17:33:54;;;;;;;4.25;3.88;;;;;;;29.44;68.19;100163.22;20911497;28;20297;-71
2021/07/15 17:43:55;;;;;;;7.13;4.53;;;;;;;28.68;72.34;100183.38;20915448;28;20665;-71
2021/07/15 17:53:55;;;;;;;4.85;4.35;;;;;;;28.20;75.26;100204.06;20910234;28;20238;-71
2021/07/15 18:03:56;;;;;;;6.93;5.20;;;;;;;27.96;77.92;100202.81;20913876;28;20507;-71
2021/07/15 18:13:56;;;;;;;5.63;5.13;;;;;;;27.75;77.84;100200.34;20908379;28;20655;-73
2021/07/15 18:23:57;;;;;;;6.10;5.40;;;;;;;27.56;80.67;100186.44;20860581;28;20230;-71
2021/07/15 18:33:58;;;;;;;6.53;5.27;;;;;;;27.45;81.25;100187.03;20829373;28;20481;-71
2021/07/15 18:44:05;;;;;;;6.20;5.20;;;;;;;27.17;82.41;100180.94;20838723;28;20223;-70
2021/07/15 18:54:07;;;;;;;6.10;5.50;;;;;;;26.76;85.26;100176.41;20875216;28;20811;-70
2021/07/15 19:04:07;;;;;;;6.20;5.60;;;;;;;26.38;88.12;100172.50;20872670;28;20246;-71
2021/07/15 19:14:08;;;;;;;9.73;6.60;;;;;;;26.03;90.18;100180.72;20872238;28;20223;-71
2021/07/15 19:24:09;;;;;;;6.70;6.10;;;;;;;25.75;92.19;100182.63;20886965;28;20237;-71
2021/07/15 19:34:11;;;;;;;7.93;7.00;;;;;;;25.44;93.88;100183.03;20904217;28;20243;-70
2021/07/15 19:44:14;;;;;;;7.20;6.53;;;;;;;25.13;96.57;100178.75;20904630;28;20624;-71
2021/07/15 19:54:14;;;;;;;7.10;6.40;;;;;;;24.87;99.54;100188.56;20884734;28;20655;-70
2021/07/15 20:04:19;;;;;;;6.60;6.07;;;;;;;24.61;100.00;100208.22;20871072;28;20234;-71
2021/07/15 20:14:20;;;;;;;7.10;6.40;;;;;;;24.36;100.00;100204.97;20872902;28;20211;-72
2021/07/15 20:24:20;;;;;;;7.50;6.90;;;;;;;24.21;100.00;100202.22;20897814;28;20727;-72
2021/07/15 20:34:21;;;;;;;7.53;6.87;;;;;;;24.01;100.00;100201.97;20843344;28;20248;-71
2021/07/15 20:44:23;;;;;;;7.50;6.70;;;;;;;23.98;100.00;100210.50;20820889;28;20223;-72
2021/07/15 20:54:24;;;;;;;8.30;7.43;;;;;;;23.99;100.00;100216.81;20825039;28;20213;-73
2021/07/15 21:04:25;;;;;;;9.10;8.20;;;;;;;23.99;100.00;100208.63;20879939;28;20223;-72
2021/07/15 21:14:26;;;;;;;9.97;9.07;;;;;;;23.91;100.00;100201.38;20918349;28;20362;-72
2021/07/15 21:24:26;;;;;;;9.43;8.47;;;;;;;23.81;100.00;100206.25;20916129;28;20277;-72
2021/07/15 21:34:27;;;;;;;8.90;8.00;;;;;;;23.80;100.00;100233.69;20917104;28;20228;-73
2021/07/15 21:44:27;;;;;;;9.83;8.93;;;;;;;23.67;100.00;100226.16;20915859;28;20273;-71
2021/07/15 21:54:28;;;;;;;9.87;8.93;;;;;;;23.72;100.00;100217.44;20914039;28;20500;-72
2021/07/15 22:04:28;;;;;;;9.77;8.97;;;;;;;23.71;100.00;100213.88;20914535;28;20220;-72
2021/07/15 22:14:29;;;;;;;9.37;8.33;;;;;;;23.56;100.00;100197.47;20912382;28;20207;-72
2021/07/15 22:24:30;;;;;;;10.17;9.17;;;;;;;23.53;100.00;100213.38;20910142;28;20237;-72
2021/07/15 22:34:31;;;;;;;10.37;9.43;;;;;;;23.52;100.00;100207.09;20911349;28;20688;-72
2021/07/15 22:44:31;;;;;;;11.33;10.23;;;;;;;23.27;100.00;100203.69;20911411;28;20248;-72
2021/07/15 22:54:33;;;;;;;11.37;9.87;;;;;;;23.29;100.00;100196.19;20909508;28;20507;-72
2021/07/15 23:04:33;;;;;;;9.40;8.60;;;;;;;23.19;100.00;100198.31;20909363;28;20242;-72
2021/07/15 23:14:34;;;;;;;12.33;9.67;;;;;;;22.87;100.00;100220.34;20907827;28;20658;-72
2021/07/15 23:24:34;;;;;;;11.17;10.17;;;;;;;22.78;100.00;100218.69;20905757;28;20231;-71
2021/07/15 23:34:35;;;;;;;9.97;9.17;;;;;;;22.80;100.00;100211.22;20907081;28;20267;-72
2021/07/15 23:44:35;;;;;;;11.63;10.43;;;;;;;22.68;100.00;100218.06;20907316;28;20318;-72
2021/07/15 23:54:36;;;;;;;12.27;9.77;;;;;;;22.41;100.00;100217.50;20906239;28;20971;-73
